Time;durP1;ratioP1;P1;durP2;ratioP2;P2;SDS_P1;SDS_P2;PMS_P1;PMS_P2;Temp;Humidity;BMP_temperature;BMP_pressure;BME280_temperature;BME280_humidity;BME280_pressure;Samples;Min_cycle;Max_cycle;Signal;HPM_P1;HPM_P2
2022/09/19 00:00:05;;;;;;;0.10;0.10;;;;;;;;;;5254518;23;20123;-96
2022/09/19 00:03:29;;;;;;;0.10;0.10;;;;;;;;;;4909936;29;20055;-96
2022/09/19 00:10:13;;;;;;;0.10;0.10;;;;;;;;;;4868580;29;20056;-95
2022/09/19 01:51:59;;;;;;;0.10;0.10;;;;;;;;;;4902384;29;20057;-95
2022/09/19 01:54:35;;;;;;;0.10;0.10;;;;;;;;;;4886242;29;20083;-96
2022/09/19 01:57:10;;;;;;;0.10;0.10;;;;;;;;;;4884455;29;20044;-95
2022/09/19 01:59:41;;;;;;;0.30;0.30;;;;;;;;;;4885015;29;20051;-95
2022/09/19 02:02:28;;;;;;;0.10;0.10;;;;;;;;;;4900303;29;20082;-94
2022/09/19 02:05:37;;;;;;;2.28;0.32;;;;;;;;;;4907198;29;20048;-96
2022/09/19 02:08:45;;;;;;;0.10;0.10;;;;;;;;;;4912788;29;20049;-96
2022/09/19 02:29:44;;;;;;;0.22;0.22;;;;;;;;;;4936982;29;20044;-96
2022/09/19 02:32:14;;;;;;;0.10;0.10;;;;;;;;;;4908177;29;20048;-96
2022/09/19 02:34:45;;;;;;;;;;;;;;;;;;4905005;29;20127;-96
2022/09/19 02:37:31;;;;;;;0.10;0.10;;;;;;;;;;4920970;29;19919;-96
2022/09/19 02:43:36;;;;;;;0.10;0.10;;;;;;;;;;4921840;29;20519;-96
2022/09/19 02:46:42;;;;;;;0.10;0.10;;;;;;;;;;4922739;29;20052;-96
2022/09/19 02:49:20;;;;;;;0.10;0.10;;;;;;;;;;4925247;29;20496;-95
2022/09/19 02:51:56;;;;;;;0.10;0.10;;;;;;;;;;4910212;29;20513;-96
2022/09/19 02:54:29;;;;;;;0.10;0.10;;;;;;;;;;4907009;29;20412;-95
2022/09/19 02:56:59;;;;;;;0.10;0.10;;;;;;;;;;4891797;29;20127;-94
2022/09/19 02:59:36;;;;;;;0.10;0.10;;;;;;;;;;4887853;29;20052;-95
2022/09/19 03:05:56;;;;;;;0.10;0.10;;;;;;;;;;4893060;29;20406;-96
2022/09/19 03:09:12;;;;;;;0.10;0.10;;;;;;;;;;4859428;29;20045;-96
2022/09/19 03:13:00;;;;;;;;;;;;;;;;;;;;;
2022/09/19 03:16:12;;;;;;;;;;;;;;;;;;;;;
2022/09/19 03:26:53;;;;;;;0.10;0.10;;;;;;;;;;4915811;29;20056;-95
2022/09/19 03:29:19;;;;;;;0.10;0.10;;;;;;;;;;4917060;29;20187;-96
2022/09/19 03:31:52;;;;;;;0.10;0.10;;;;;;;;;;4905850;29;20051;-96
2022/09/19 03:37:57;;;;;;;0.10;0.10;;;;;;;;;;4843300;29;20508;-96
2022/09/19 04:09:06;;;;;;;0.10;0.10;;;;;;;;;;1252152;23;20315;-94
2022/09/19 04:39:29;;;;;;;0.10;0.10;;;;;;;;;;4932551;29;20047;-96
2022/09/19 04:42:34;;;;;;;0.10;0.10;;;;;;;;;;4947846;29;20062;-95
2022/09/19 04:45:22;;;;;;;0.10;0.10;;;;;;;;;;4928339;29;20479;-96
2022/09/19 04:48:20;;;;;;;0.10;0.10;;;;;;;;;;4900878;29;20075;-96
2022/09/19 04:50:50;;;;;;;0.10;0.10;;;;;;;;;;4890229;29;20047;-96
2022/09/19 04:53:22;;;;;;;0.10;0.10;;;;;;;;;;4905084;29;20044;-96
2022/09/19 04:56:36;;;;;;;;;;;;;;;;;;;;;
2022/09/19 05:11:46;;;;;;;0.10;0.10;;;;;;;;;;5284871;23;20107;-96
2022/09/19 05:14:14;;;;;;;0.10;0.10;;;;;;;;;;4935646;29;20493;-96
2022/09/19 05:17:00;;;;;;;0.10;0.10;;;;;;;;;;4920789;29;20402;-96
2022/09/19 05:30:26;;;;;;;0.10;0.10;;;;;;;;;;4949762;23;20052;-96
2022/09/19 05:32:57;;;;;;;0.10;0.10;;;;;;;;;;4886818;29;20044;-96
2022/09/19 05:35:40;;;;;;;0.10;0.10;;;;;;;;;;4919292;29;20460;-95
2022/09/19 05:38:08;;;;;;;0.10;0.10;;;;;;;;;;4916484;29;20051;-94
2022/09/19 05:40:34;;;;;;;0.10;0.10;;;;;;;;;;4884773;29;20044;-94
2022/09/19 05:43:02;;;;;;;0.10;0.10;;;;;;;;;;4884201;29;20262;-95
2022/09/19 05:45:29;;;;;;;0.10;0.10;;;;;;;;;;4884812;29;20484;-94
2022/09/19 05:48:06;;;;;;;0.10;0.10;;;;;;;;;;4884501;29;20056;-94
2022/09/19 05:55:59;;;;;;;0.10;0.10;;;;;;;;;;4937717;29;20055;-94
2022/09/19 05:58:25;;;;;;;0.10;0.10;;;;;;;;;;4921488;29;20399;-92
2022/09/19 06:00:52;;;;;;;0.10;0.10;;;;;;;;;;4916740;29;20044;-93
2022/09/19 06:03:23;;;;;;;0.10;0.10;;;;;;;;;;4887954;29;20396;-94
2022/09/19 06:05:50;;;;;;;0.10;0.10;;;;;;;;;;4887262;29;20047;-95
2022/09/19 06:08:17;;;;;;;0.10;0.10;;;;;;;;;;4887373;29;20095;-94
2022/09/19 06:10:43;;;;;;;0.10;0.10;;;;;;;;;;4887118;29;20575;-94
2022/09/19 06:13:17;;;;;;;0.10;0.10;;;;;;;;;;4887048;29;20059;-93
2022/09/19 06:15:43;;;;;;;0.10;0.10;;;;;;;;;;4918516;29;20130;-91
2022/09/19 06:18:09;;;;;;;0.10;0.10;;;;;;;;;;4902567;29;20090;-91
2022/09/19 06:20:42;;;;;;;0.10;0.10;;;;;;;;;;4902944;29;20055;-96
2022/09/19 06:23:11;;;;;;;0.10;0.10;;;;;;;;;;4887598;29;20108;-94
2022/09/19 06:25:38;;;;;;;0.10;0.10;;;;;;;;;;4887968;29;20055;-93
2022/09/19 06:28:05;;;;;;;0.10;0.10;;;;;;;;;;4886676;29;20176;-92
2022/09/19 06:30:32;;;;;;;0.10;0.10;;;;;;;;;;4885886;29;20123;-92
2022/09/19 06:32:57;;;;;;;0.10;0.10;;;;;;;;;;4917125;29;20206;-90
2022/09/19 06:35:25;;;;;;;0.10;0.10;;;;;;;;;;4886106;29;20123;-91
2022/09/19 06:37:56;;;;;;;0.10;0.10;;;;;;;;;;4885603;29;20044;-90
2022/09/19 06:40:22;;;;;;;0.10;0.10;;;;;;;;;;4885944;29;20103;-91
2022/09/19 06:42:52;;;;;;;0.10;0.10;;;;;;;;;;4885097;29;20139;-92
2022/09/19 06:45:18;;;;;;;0.10;0.10;;;;;;;;;;4885441;29;20048;-89
2022/09/19 06:47:44;;;;;;;0.10;0.10;;;;;;;;;;4885529;29;20131;-92
2022/09/19 06:50:13;;;;;;;1.90;0.30;;;;;;;;;;4885532;29;20047;-92
2022/09/19 06:52:48;;;;;;;0.10;0.10;;;;;;;;;;4886164;29;20044;-92
2022/09/19 06:55:14;;;;;;;0.10;0.10;;;;;;;;;;4901474;29;20388;-93
2022/09/19 06:57:40;;;;;;;0.10;0.10;;;;;;;;;;4889875;29;20052;-96
2022/09/19 07:00:06;;;;;;;0.10;0.10;;;;;;;;;;4886638;29;20048;-96
2022/09/19 07:02:34;;;;;;;0.10;0.10;;;;;;;;;;4887360;29;20134;-94
2022/09/19 07:05:00;;;;;;;0.10;0.10;;;;;;;;;;4887676;29;20052;-95
2022/09/19 07:07:31;;;;;;;0.10;0.10;;;;;;;;;;4886399;29;20048;-94
2022/09/19 07:10:13;;;;;;;0.17;0.17;;;;;;;;;;4911291;29;20051;-96
2022/09/19 07:13:28;;;;;;;0.40;0.40;;;;;;;;;;4926835;29;20060;-96
2022/09/19 07:16:13;;;;;;;0.10;0.10;;;;;;;;;;4882971;29;20043;-96
2022/09/19 07:19:50;;;;;;;;;;;;;;;;;;;;;
2022/09/19 10:14:31;;;;;;;0.10;0.10;;;;;;;;;;4909673;29;19975;-96
2022/09/19 10:17:29;;;;;;;;;;;;;;;;;;;;;
2022/09/19 10:20:40;;;;;;;0.10;0.10;;;;;;;;;;4832438;29;20030;-96
2022/09/19 10:23:33;;;;;;;0.10;0.10;;;;;;;;;;4819575;29;20061;-96
2022/09/19 10:26:15;;;;;;;0.10;0.10;;;;;;;;;;4821221;29;20164;-95
2022/09/19 10:28:46;;;;;;;0.10;0.10;;;;;;;;;;4816362;29;20122;-96
2022/09/19 10:31:23;;;;;;;0.10;0.10;;;;;;;;;;4804388;29;20546;-96
2022/09/19 10:34:05;;;;;;;0.10;0.10;;;;;;;;;;4831881;29;20082;-96
2022/09/19 10:36:37;;;;;;;0.10;0.10;;;;;;;;;;4815488;29;20089;-96
2022/09/19 10:39:14;;;;;;;0.10;0.10;;;;;;;;;;4798096;29;20398;-96
2022/09/19 10:41:52;;;;;;;0.10;0.10;;;;;;;;;;4812063;29;20084;-96
2022/09/19 10:44:25;;;;;;;0.10;0.10;;;;;;;;;;4815142;29;20065;-96
2022/09/19 10:47:20;;;;;;;0.10;0.10;;;;;;;;;;4819563;29;20075;-96
2022/09/19 10:50:10;;;;;;;0.10;0.10;;;;;;;;;;4832060;29;20049;-96
2022/09/19 10:52:46;;;;;;;0.10;0.10;;;;;;;;;;4831002;29;20050;-96
2022/09/19 10:55:33;;;;;;;0.10;0.10;;;;;;;;;;4832380;29;20081;-96
2022/09/19 10:58:22;;;;;;;0.10;0.10;;;;;;;;;;4834279;29;20050;-96
2022/09/19 11:01:20;;;;;;;0.10;0.10;;;;;;;;;;4817057;29;20053;-96
2022/09/19 11:04:28;;;;;;;;;;;;;;;;;;;;;
2022/09/19 11:07:26;;;;;;;0.10;0.10;;;;;;;;;;4836983;29;20086;-96
2022/09/19 11:10:39;;;;;;;0.10;0.10;;;;;;;;;;4837915;29;20046;-96
2022/09/19 11:13:44;;;;;;;0.10;0.10;;;;;;;;;;4839018;29;20068;-96
2022/09/19 11:16:37;;;;;;;0.17;0.17;;;;;;;;;;4797263;29;20077;-96
2022/09/19 11:22:50;;;;;;;0.20;0.20;;;;;;;;;;4784598;30;20050;-96
2022/09/19 11:25:37;;;;;;;0.10;0.10;;;;;;;;;;4838132;29;20038;-96
2022/09/19 11:28:49;;;;;;;0.10;0.10;;;;;;;;;;4826788;29;20046;-96
2022/09/19 17:56:52;;;;;;;0.10;0.10;;;;;;;;;;5581002;23;20056;-95
2022/09/19 17:59:20;;;;;;;0.10;0.10;;;;;;;;;;4925887;29;20075;-96
2022/09/19 18:05:32;;;;;;;0.10;0.10;;;;;;;;;;4901531;29;20056;-96
2022/09/19 18:08:01;;;;;;;0.10;0.10;;;;;;;;;;4852084;29;20063;-96
2022/09/19 18:10:30;;;;;;;0.10;0.10;;;;;;;;;;4854771;29;20497;-96
2022/09/19 19:06:10;;;;;;;0.10;0.10;;;;;;;;;;5184874;23;20296;-95
2022/09/19 19:08:51;;;;;;;;;;;;;;;;;;;;;
2022/09/19 19:25:52;;;;;;;0.10;0.10;;;;;;;;;;5722426;23;21458;-94
2022/09/19 19:28:34;;;;;;;0.10;0.10;;;;;;;;;;4877252;29;20060;-95
2022/09/19 19:31:06;;;;;;;0.10;0.10;;;;;;;;;;4878864;29;20048;-95
2022/09/19 19:33:38;;;;;;;0.10;0.10;;;;;;;;;;4863680;29;20044;-94
2022/09/19 19:36:04;;;;;;;0.10;0.10;;;;;;;;;;4878725;29;20057;-94
2022/09/19 19:38:32;;;;;;;0.10;0.10;;;;;;;;;;4863302;29;20053;-94
2022/09/19 19:40:59;;;;;;;0.10;0.10;;;;;;;;;;4863981;29;20045;-94
2022/09/19 19:43:28;;;;;;;0.10;0.10;;;;;;;;;;4863493;29;20097;-94
2022/09/19 19:45:56;;;;;;;0.10;0.10;;;;;;;;;;4863483;29;20106;-93
2022/09/19 19:48:25;;;;;;;0.50;0.50;;;;;;;;;;4862431;29;20468;-94
2022/09/19 19:50:58;;;;;;;0.10;0.10;;;;;;;;;;4862026;29;20053;-95
2022/09/19 19:53:26;;;;;;;0.10;0.10;;;;;;;;;;4875692;29;20421;-94
2022/09/19 19:56:19;;;;;;;0.10;0.10;;;;;;;;;;4851054;29;20048;-94
2022/09/19 19:58:49;;;;;;;0.10;0.10;;;;;;;;;;4862428;29;20216;-94
2022/09/19 20:01:18;;;;;;;0.10;0.10;;;;;;;;;;4860313;29;20560;-94
2022/09/19 20:03:45;;;;;;;0.10;0.10;;;;;;;;;;4861000;29;20049;-94
2022/09/19 20:15:49;;;;;;;0.10;0.10;;;;;;;;;;5170834;23;20043;-96
2022/09/19 20:18:33;;;;;;;0.10;0.10;;;;;;;;;;4905988;29;20040;-96
2022/09/19 20:23:30;;;;;;;0.10;0.10;;;;;;;;;;4933915;29;20135;-96
2022/09/19 20:26:19;;;;;;;0.10;0.10;;;;;;;;;;4926923;29;20067;-96
2022/09/19 20:28:50;;;;;;;0.10;0.10;;;;;;;;;;4920802;29;20483;-95
2022/09/19 20:31:25;;;;;;;0.20;0.20;;;;;;;;;;4913494;29;20046;-96
2022/09/19 20:34:09;;;;;;;0.10;0.10;;;;;;;;;;4902037;29;20472;-96
2022/09/19 20:42:23;;;;;;;0.10;0.10;;;;;;;;;;5684171;23;20047;-95
2022/09/19 20:58:31;;;;;;;0.10;0.10;;;;;;;;;;5919092;23;20027;-96
